Terminal Aerodrome Forecast
Issued by NWS

Home | Current Version | Previous Version | Text Only | Print | Product List | Glossary On
Versions: 1 2 3 4 5 6 7 8 9 10 11 12 13 14
000
FTUS43 KFGF 201137 AAB
TAFDVL
TAF AMD
KDVL 201137Z 2012/2112 23009KT P6SM BKN200
     FM201700 25014KT P6SM SCT200
     FM202100 28018G27KT P6SM SCT200
     FM210100 31024G34KT P6SM SCT110
     FM210400 31025G35KT P6SM BKN040
     FM210500 32025G35KT P6SM BKN030
     FM211100 32019G27KT P6SM BKN040=

USA.gov is the U.S. government's official web portal to all federal, state and local government web resources and services.